sensor_id;sensor_type;location;lat;lon;timestamp;pressure;altitude;pressure_sealevel;temperature;humidity
45541;BME280;31265;49.680;8.608;2024-01-10T00:00:21;101705.41;;;-5.35;100.00
45541;BME280;31265;49.680;8.608;2024-01-10T00:02:49;101712.19;;;-5.27;100.00
45541;BME280;31265;49.680;8.608;2024-01-10T00:05:17;101692.88;;;-5.09;100.00
45541;BME280;31265;49.680;8.608;2024-01-10T00:07:47;101700.31;;;-5.13;100.00
45541;BME280;31265;49.680;8.608;2024-01-10T00:10:16;101696.34;;;-5.08;100.00
45541;BME280;31265;49.680;8.608;2024-01-10T00:12:44;101690.84;;;-5.05;100.00
45541;BME280;31265;49.680;8.608;2024-01-10T00:15:15;101690.53;;;-5.07;100.00
45541;BME280;31265;49.680;8.608;2024-01-10T00:17:43;101703.56;;;-4.85;100.00
45541;BME280;31265;49.680;8.608;2024-01-10T00:20:12;101699.47;;;-5.10;100.00
45541;BME280;31265;49.680;8.608;2024-01-10T00:22:40;101688.56;;;-5.06;100.00
45541;BME280;31265;49.680;8.608;2024-01-10T00:25:08;101695.75;;;-5.16;100.00
45541;BME280;31265;49.680;8.608;2024-01-10T00:27:37;101695.75;;;-5.16;100.00
45541;BME280;31265;49.680;8.608;2024-01-10T00:30:06;101702.09;;;-5.06;100.00
45541;BME280;31265;49.680;8.608;2024-01-10T00:32:37;101684.06;;;-5.13;100.00
45541;BME280;31265;49.680;8.608;2024-01-10T00:35:05;101694.44;;;-5.28;100.00
45541;BME280;31265;49.680;8.608;2024-01-10T00:37:34;101690.59;;;-5.10;100.00
45541;BME280;31265;49.680;8.608;2024-01-10T00:40:03;101691.09;;;-5.15;100.00
45541;BME280;31265;49.680;8.608;2024-01-10T00:42:32;101684.81;;;-5.29;100.00
45541;BME280;31265;49.680;8.608;2024-01-10T00:45:00;101684.97;;;-5.20;100.00
45541;BME280;31265;49.680;8.608;2024-01-10T00:47:29;101682.84;;;-5.28;100.00
45541;BME280;31265;49.680;8.608;2024-01-10T00:49:59;101678.91;;;-5.24;100.00
45541;BME280;31265;49.680;8.608;2024-01-10T00:52:28;101676.28;;;-5.11;99.85
45541;BME280;31265;49.680;8.608;2024-01-10T00:54:57;101679.56;;;-5.20;100.00
45541;BME280;31265;49.680;8.608;2024-01-10T00:57:27;101677.84;;;-5.30;100.00
45541;BME280;31265;49.680;8.608;2024-01-10T00:59:56;101676.13;;;-5.40;100.00
45541;BME280;31265;49.680;8.608;2024-01-10T01:02:24;101679.75;;;-5.47;100.00
45541;BME280;31265;49.680;8.608;2024-01-10T01:04:53;101680.09;;;-5.45;100.00
45541;BME280;31265;49.680;8.608;2024-01-10T01:07:23;101680.19;;;-5.48;100.00
45541;BME280;31265;49.680;8.608;2024-01-10T01:09:51;101677.25;;;-5.57;100.00
45541;BME280;31265;49.680;8.608;2024-01-10T01:12:19;101681.16;;;-5.58;100.00
45541;BME280;31265;49.680;8.608;2024-01-10T01:14:47;101688.09;;;-5.57;100.00
45541;BME280;31265;49.680;8.608;2024-01-10T01:17:16;101687.44;;;-5.45;100.00
45541;BME280;31265;49.680;8.608;2024-01-10T01:19:44;101687.22;;;-5.34;100.00
45541;BME280;31265;49.680;8.608;2024-01-10T01:22:13;101686.16;;;-5.21;100.00
45541;BME280;31265;49.680;8.608;2024-01-10T01:24:43;101681.44;;;-5.16;100.00
45541;BME280;31265;49.680;8.608;2024-01-10T01:27:11;101688.88;;;-5.21;100.00
45541;BME280;31265;49.680;8.608;2024-01-10T01:29:40;101686.66;;;-5.26;100.00
45541;BME280;31265;49.680;8.608;2024-01-10T01:32:08;101687.41;;;-5.25;100.00
45541;BME280;31265;49.680;8.608;2024-01-10T01:34:38;101689.63;;;-5.20;100.00
45541;BME280;31265;49.680;8.608;2024-01-10T01:37:06;101684.31;;;-5.24;100.00
45541;BME280;31265;49.680;8.608;2024-01-10T01:39:35;101689.56;;;-5.16;100.00
45541;BME280;31265;49.680;8.608;2024-01-10T01:42:06;101686.97;;;-5.04;100.00
45541;BME280;31265;49.680;8.608;2024-01-10T01:44:34;101682.72;;;-5.05;99.50
45541;BME280;31265;49.680;8.608;2024-01-10T01:47:04;101683.31;;;-5.13;100.00
45541;BME280;31265;49.680;8.608;2024-01-10T01:49:33;101676.19;;;-5.07;100.00
45541;BME280;31265;49.680;8.608;2024-01-10T01:52:02;101673.09;;;-5.06;99.60
45541;BME280;31265;49.680;8.608;2024-01-10T01:54:35;101668.44;;;-5.05;100.00
45541;BME280;31265;49.680;8.608;2024-01-10T01:57:20;101669.13;;;-5.01;99.85
45541;BME280;31265;49.680;8.608;2024-01-10T01:59:49;101663.34;;;-5.03;97.83
45541;BME280;31265;49.680;8.608;2024-01-10T02:02:17;101664.47;;;-5.01;97.15
45541;BME280;31265;49.680;8.608;2024-01-10T02:04:47;101661.84;;;-4.88;97.87
45541;BME280;31265;49.680;8.608;2024-01-10T02:07:16;101662.69;;;-4.91;95.18
45541;BME280;31265;49.680;8.608;2024-01-10T02:09:44;101669.47;;;-4.83;94.74
45541;BME280;31265;49.680;8.608;2024-01-10T02:12:12;101672.59;;;-4.84;94.58
45541;BME280;31265;49.680;8.608;2024-01-10T02:14:43;101665.59;;;-4.82;97.08
45541;BME280;31265;49.680;8.608;2024-01-10T02:17:11;101665.59;;;-4.82;95.43
45541;BME280;31265;49.680;8.608;2024-01-10T02:19:39;101670.22;;;-4.66;94.77
45541;BME280;31265;49.680;8.608;2024-01-10T02:22:08;101661.63;;;-4.77;94.39
45541;BME280;31265;49.680;8.608;2024-01-10T02:24:38;101666.09;;;-4.70;95.07
45541;BME280;31265;49.680;8.608;2024-01-10T02:27:08;101659.31;;;-4.79;94.38
45541;BME280;31265;49.680;8.608;2024-01-10T02:29:36;101657.09;;;-4.67;94.64
45541;BME280;31265;49.680;8.608;2024-01-10T02:32:05;101646.94;;;-4.47;93.24
45541;BME280;31265;49.680;8.608;2024-01-10T02:34:35;101658.97;;;-4.64;96.13
45541;BME280;31265;49.680;8.608;2024-01-10T02:37:03;101655.00;;;-4.60;94.88
45541;BME280;31265;49.680;8.608;2024-01-10T02:39:32;101654.06;;;-4.69;93.41
45541;BME280;31265;49.680;8.608;2024-01-10T02:42:00;101652.97;;;-4.72;94.75
45541;BME280;31265;49.680;8.608;2024-01-10T02:44:30;101659.06;;;-4.68;94.23
45541;BME280;31265;49.680;8.608;2024-01-10T02:46:58;101648.22;;;-4.51;92.77
45541;BME280;31265;49.680;8.608;2024-01-10T02:49:27;101651.78;;;-4.55;93.85
45541;BME280;31265;49.680;8.608;2024-01-10T02:51:57;101650.06;;;-4.48;91.36
45541;BME280;31265;49.680;8.608;2024-01-10T02:54:25;101646.84;;;-4.43;92.65
45541;BME280;31265;49.680;8.608;2024-01-10T02:56:54;101648.28;;;-4.39;90.53
45541;BME280;31265;49.680;8.608;2024-01-10T02:59:22;101657.50;;;-4.36;90.81
45541;BME280;31265;49.680;8.608;2024-01-10T03:01:52;101643.97;;;-4.36;89.27
45541;BME280;31265;49.680;8.608;2024-01-10T03:04:20;101641.81;;;-4.28;89.80
45541;BME280;31265;49.680;8.608;2024-01-10T03:06:49;101647.88;;;-4.37;88.86
45541;BME280;31265;49.680;8.608;2024-01-10T03:09:17;101642.75;;;-4.19;88.08
45541;BME280;31265;49.680;8.608;2024-01-10T03:11:46;101639.28;;;-4.36;89.77
45541;BME280;31265;49.680;8.608;2024-01-10T03:14:14;101640.09;;;-4.35;89.97
45541;BME280;31265;49.680;8.608;2024-01-10T03:16:42;101635.59;;;-4.42;88.98
45541;BME280;31265;49.680;8.608;2024-01-10T03:19:12;101631.69;;;-4.41;89.51
45541;BME280;31265;49.680;8.608;2024-01-10T03:21:41;101629.72;;;-4.40;90.60
45541;BME280;31265;49.680;8.608;2024-01-10T03:24:09;101630.56;;;-4.27;86.98
45541;BME280;31265;49.680;8.608;2024-01-10T03:26:38;101625.38;;;-4.21;87.22
45541;BME280;31265;49.680;8.608;2024-01-10T03:29:06;101626.69;;;-4.13;85.72
45541;BME280;31265;49.680;8.608;2024-01-10T03:31:35;101614.34;;;-4.14;85.05
45541;BME280;31265;49.680;8.608;2024-01-10T03:34:04;101619.97;;;-4.21;84.29
45541;BME280;31265;49.680;8.608;2024-01-10T03:36:34;101614.34;;;-4.14;85.44
45541;BME280;31265;49.680;8.608;2024-01-10T03:39:02;101614.34;;;-4.14;84.15
45541;BME280;31265;49.680;8.608;2024-01-10T03:41:31;101619.47;;;-4.03;84.22
45541;BME280;31265;49.680;8.608;2024-01-10T03:43:59;101619.81;;;-4.01;82.72
45541;BME280;31265;49.680;8.608;2024-01-10T03:46:28;101624.69;;;-3.96;84.34
45541;BME280;31265;49.680;8.608;2024-01-10T03:48:57;101622.75;;;-3.96;83.88
45541;BME280;31265;49.680;8.608;2024-01-10T03:51:25;101622.63;;;-4.05;84.41
45541;BME280;31265;49.680;8.608;2024-01-10T03:53:55;101633.13;;;-4.07;84.69
45541;BME280;31265;49.680;8.608;2024-01-10T03:56:23;101631.28;;;-4.10;88.68
45541;BME280;31265;49.680;8.608;2024-01-10T03:58:51;101624.63;;;-4.22;92.16
45541;BME280;31265;49.680;8.608;2024-01-10T04:01:22;101624.69;;;-4.25;95.23
45541;BME280;31265;49.680;8.608;2024-01-10T04:03:51;101624.22;;;-4.37;98.57
45541;BME280;31265;49.680;8.608;2024-01-10T04:06:20;101622.78;;;-4.41;100.00
45541;BME280;31265;49.680;8.608;2024-01-10T04:08:48;101621.13;;;-4.51;100.00
45541;BME280;31265;49.680;8.608;2024-01-10T04:11:18;101613.75;;;-4.67;100.00
45541;BME280;31265;49.680;8.608;2024-01-10T04:13:47;101620.13;;;-4.74;100.00
45541;BME280;31265;49.680;8.608;2024-01-10T04:16:16;101617.50;;;-4.78;100.00
45541;BME280;31265;49.680;8.608;2024-01-10T04:18:44;101619.03;;;-4.77;100.00
45541;BME280;31265;49.680;8.608;2024-01-10T04:21:13;101625.38;;;-4.83;100.00
45541;BME280;31265;49.680;8.608;2024-01-10T04:23:42;101617.34;;;-4.87;100.00
45541;BME280;31265;49.680;8.608;2024-01-10T04:26:10;101620.72;;;-4.83;100.00
45541;BME280;31265;49.680;8.608;2024-01-10T04:28:40;101623.94;;;-4.88;100.00
45541;BME280;31265;49.680;8.608;2024-01-10T04:31:08;101623.19;;;-4.88;100.00
45541;BME280;31265;49.680;8.608;2024-01-10T04:33:37;101624.78;;;-4.91;100.00
45541;BME280;31265;49.680;8.608;2024-01-10T04:36:06;101621.41;;;-4.95;100.00
45541;BME280;31265;49.680;8.608;2024-01-10T04:38:35;101629.59;;;-4.82;100.00
45541;BME280;31265;49.680;8.608;2024-01-10T04:41:03;101629.13;;;-4.77;100.00
45541;BME280;31265;49.680;8.608;2024-01-10T04:43:35;101625.63;;;-4.78;100.00
45541;BME280;31265;49.680;8.608;2024-01-10T04:46:05;101635.47;;;-4.84;100.00
45541;BME280;31265;49.680;8.608;2024-01-10T04:48:33;101631.72;;;-4.90;100.00
45541;BME280;31265;49.680;8.608;2024-01-10T04:51:02;101636.88;;;-4.95;100.00
45541;BME280;31265;49.680;8.608;2024-01-10T04:53:31;101632.72;;;-5.00;100.00
45541;BME280;31265;49.680;8.608;2024-01-10T04:55:59;101622.84;;;-5.07;100.00
45541;BME280;31265;49.680;8.608;2024-01-10T04:58:28;101622.22;;;-5.14;100.00
45541;BME280;31265;49.680;8.608;2024-01-10T05:00:57;101625.44;;;-5.20;100.00
45541;BME280;31265;49.680;8.608;2024-01-10T05:03:27;101621.97;;;-5.20;100.00
45541;BME280;31265;49.680;8.608;2024-01-10T05:05:55;101619.25;;;-5.20;100.00
45541;BME280;31265;49.680;8.608;2024-01-10T05:08:23;101616.75;;;-5.11;100.00
45541;BME280;31265;49.680;8.608;2024-01-10T05:10:53;101623.41;;;-5.15;100.00
45541;BME280;31265;49.680;8.608;2024-01-10T05:13:22;101617.16;;;-5.12;100.00
45541;BME280;31265;49.680;8.608;2024-01-10T05:15:50;101621.06;;;-5.13;100.00
45541;BME280;31265;49.680;8.608;2024-01-10T05:18:18;101628.50;;;-5.01;100.00
45541;BME280;31265;49.680;8.608;2024-01-10T05:20:48;101626.97;;;-5.02;100.00
45541;BME280;31265;49.680;8.608;2024-01-10T05:23:17;101634.44;;;-5.06;100.00
45541;BME280;31265;49.680;8.608;2024-01-10T05:25:46;101629.53;;;-5.11;100.00
45541;BME280;31265;49.680;8.608;2024-01-10T05:28:15;101630.78;;;-5.16;100.00
45541;BME280;31265;49.680;8.608;2024-01-10T05:30:44;101632.63;;;-5.13;100.00
45541;BME280;31265;49.680;8.608;2024-01-10T05:33:12;101635.09;;;-5.19;100.00
45541;BME280;31265;49.680;8.608;2024-01-10T05:35:42;101629.91;;;-5.29;100.00
45541;BME280;31265;49.680;8.608;2024-01-10T05:38:12;101624.94;;;-5.31;100.00
45541;BME280;31265;49.680;8.608;2024-01-10T05:40:42;101632.44;;;-5.22;100.00
45541;BME280;31265;49.680;8.608;2024-01-10T05:43:11;101637.94;;;-5.26;100.00
45541;BME280;31265;49.680;8.608;2024-01-10T05:45:39;101632.28;;;-5.31;100.00
45541;BME280;31265;49.680;8.608;2024-01-10T05:48:08;101631.84;;;-5.30;100.00
45541;BME280;31265;49.680;8.608;2024-01-10T05:50:37;101630.00;;;-5.33;100.00
45541;BME280;31265;49.680;8.608;2024-01-10T05:53:06;101633.44;;;-5.32;100.00
45541;BME280;31265;49.680;8.608;2024-01-10T05:55:37;101628.53;;;-5.37;100.00
45541;BME280;31265;49.680;8.608;2024-01-10T05:58:06;101633.53;;;-5.36;100.00
45541;BME280;31265;49.680;8.608;2024-01-10T06:00:36;101622.28;;;-5.34;100.00
45541;BME280;31265;49.680;8.608;2024-01-10T06:03:05;101629.91;;;-5.29;100.00
45541;BME280;31265;49.680;8.608;2024-01-10T06:05:34;101628.03;;;-5.32;100.00
45541;BME280;31265;49.680;8.608;2024-01-10T06:08:03;101636.41;;;-5.27;100.00
45541;BME280;31265;49.680;8.608;2024-01-10T06:10:32;101634.41;;;-5.23;100.00
45541;BME280;31265;49.680;8.608;2024-01-10T06:13:06;101638.75;;;-5.09;100.00
45541;BME280;31265;49.680;8.608;2024-01-10T06:15:34;101637.56;;;-5.08;100.00
45541;BME280;31265;49.680;8.608;2024-01-10T06:18:03;101630.03;;;-4.84;100.00
45541;BME280;31265;49.680;8.608;2024-01-10T06:20:32;101632.91;;;-4.91;100.00
45541;BME280;31265;49.680;8.608;2024-01-10T06:23:02;101629.69;;;-4.86;100.00
45541;BME280;31265;49.680;8.608;2024-01-10T06:25:32;101633.00;;;-4.78;100.00
45541;BME280;31265;49.680;8.608;2024-01-10T06:28:01;101626.06;;;-4.79;100.00
45541;BME280;31265;49.680;8.608;2024-01-10T06:30:31;101634.19;;;-4.79;100.00
45541;BME280;31265;49.680;8.608;2024-01-10T06:33:07;101638.34;;;-4.74;100.00
45541;BME280;31265;49.680;8.608;2024-01-10T06:35:36;101633.75;;;-4.78;100.00
45541;BME280;31265;49.680;8.608;2024-01-10T06:38:04;101637.13;;;-4.73;100.00
45541;BME280;31265;49.680;8.608;2024-01-10T06:40:33;101639.69;;;-4.83;100.00
45541;BME280;31265;49.680;8.608;2024-01-10T06:43:02;101637.06;;;-4.86;100.00
45541;BME280;31265;49.680;8.608;2024-01-10T06:45:32;101642.66;;;-4.93;100.00
45541;BME280;31265;49.680;8.608;2024-01-10T06:48:00;101637.63;;;-4.95;100.00
45541;BME280;31265;49.680;8.608;2024-01-10T06:50:28;101639.50;;;-5.08;100.00
45541;BME280;31265;49.680;8.608;2024-01-10T06:52:57;101639.84;;;-5.06;100.00
45541;BME280;31265;49.680;8.608;2024-01-10T06:55:26;101634.50;;;-5.10;100.00
45541;BME280;31265;49.680;8.608;2024-01-10T06:57:56;101633.75;;;-5.10;100.00
45541;BME280;31265;49.680;8.608;2024-01-10T07:00:25;101633.59;;;-5.03;100.00
45541;BME280;31265;49.680;8.608;2024-01-10T07:02:55;101637.91;;;-5.06;100.00
45541;BME280;31265;49.680;8.608;2024-01-10T07:05:25;101646.00;;;-5.06;100.00
45541;BME280;31265;49.680;8.608;2024-01-10T07:07:53;101647.13;;;-5.03;100.00
45541;BME280;31265;49.680;8.608;2024-01-10T07:10:22;101646.03;;;-4.89;100.00
45541;BME280;31265;49.680;8.608;2024-01-10T07:12:54;101655.56;;;-4.85;100.00
45541;BME280;31265;49.680;8.608;2024-01-10T07:15:23;101655.34;;;-4.74;100.00
45541;BME280;31265;49.680;8.608;2024-01-10T07:17:56;101656.09;;;-4.90;100.00
45541;BME280;31265;49.680;8.608;2024-01-10T07:20:25;101651.53;;;-4.93;100.00
45541;BME280;31265;49.680;8.608;2024-01-10T07:22:54;101657.97;;;-4.87;100.00
45541;BME280;31265;49.680;8.608;2024-01-10T07:25:22;101666.59;;;-4.92;100.00
45541;BME280;31265;49.680;8.608;2024-01-10T07:27:52;101665.41;;;-4.91;100.00
45541;BME280;31265;49.680;8.608;2024-01-10T07:30:22;101662.69;;;-4.91;100.00
45541;BME280;31265;49.680;8.608;2024-01-10T07:32:50;101664.16;;;-4.86;100.00
45541;BME280;31265;49.680;8.608;2024-01-10T07:35:20;101667.09;;;-4.81;100.00
45541;BME280;31265;49.680;8.608;2024-01-10T07:37:50;101675.31;;;-4.68;100.00
45541;BME280;31265;49.680;8.608;2024-01-10T07:40:19;101667.63;;;-4.69;100.00
45541;BME280;31265;49.680;8.608;2024-01-10T07:42:51;101682.94;;;-4.63;100.00
45541;BME280;31265;49.680;8.608;2024-01-10T07:45:19;101685.72;;;-4.66;100.00
45541;BME280;31265;49.680;8.608;2024-01-10T07:47:48;101686.50;;;-4.66;100.00
45541;BME280;31265;49.680;8.608;2024-01-10T07:50:17;101696.91;;;-4.64;100.00
45541;BME280;31265;49.680;8.608;2024-01-10T07:52:48;101701.06;;;-4.60;100.00
45541;BME280;31265;49.680;8.608;2024-01-10T07:55:17;101697.69;;;-4.47;100.00
45541;BME280;31265;49.680;8.608;2024-01-10T07:57:45;101706.22;;;-4.49;100.00
45541;BME280;31265;49.680;8.608;2024-01-10T08:00:15;101707.22;;;-4.43;100.00
45541;BME280;31265;49.680;8.608;2024-01-10T08:02:43;101715.53;;;-4.34;100.00
45541;BME280;31265;49.680;8.608;2024-01-10T08:05:12;101700.59;;;-4.25;100.00
45541;BME280;31265;49.680;8.608;2024-01-10T08:07:40;101710.44;;;-4.15;100.00
45541;BME280;31265;49.680;8.608;2024-01-10T08:10:11;101705.06;;;-4.02;100.00
45541;BME280;31265;49.680;8.608;2024-01-10T08:12:41;101706.72;;;-3.92;100.00
45541;BME280;31265;49.680;8.608;2024-01-10T08:15:10;101713.59;;;-3.87;100.00
45541;BME280;31265;49.680;8.608;2024-01-10T08:17:39;101718.84;;;-3.80;100.00
45541;BME280;31265;49.680;8.608;2024-01-10T08:20:08;101717.84;;;-3.74;100.00
45541;BME280;31265;49.680;8.608;2024-01-10T08:22:38;101713.88;;;-3.69;100.00
45541;BME280;31265;49.680;8.608;2024-01-10T08:25:08;101712.16;;;-3.63;100.00
45541;BME280;31265;49.680;8.608;2024-01-10T08:27:39;101717.19;;;-3.49;100.00
45541;BME280;31265;49.680;8.608;2024-01-10T08:30:11;101715.09;;;-3.57;100.00
45541;BME280;31265;49.680;8.608;2024-01-10T08:32:41;101720.00;;;-3.52;100.00
45541;BME280;31265;49.680;8.608;2024-01-10T08:35:10;101715.31;;;-3.52;100.00
45541;BME280;31265;49.680;8.608;2024-01-10T08:37:38;101712.53;;;-3.48;100.00
45541;BME280;31265;49.680;8.608;2024-01-10T08:40:11;101714.50;;;-3.49;100.00
45541;BME280;31265;49.680;8.608;2024-01-10T08:42:44;101708.63;;;-3.47;100.00
45541;BME280;31265;49.680;8.608;2024-01-10T08:45:12;101706.66;;;-3.47;100.00
45541;BME280;31265;49.680;8.608;2024-01-10T08:47:42;101712.41;;;-3.44;100.00
45541;BME280;31265;49.680;8.608;2024-01-10T08:50:11;101714.25;;;-3.41;100.00
45541;BME280;31265;49.680;8.608;2024-01-10T08:52:41;101707.44;;;-3.46;100.00
45541;BME280;31265;49.680;8.608;2024-01-10T08:55:11;101713.28;;;-3.48;100.00
45541;BME280;31265;49.680;8.608;2024-01-10T08:57:40;101712.41;;;-3.44;100.00
45541;BME280;31265;49.680;8.608;2024-01-10T09:00:14;101711.81;;;-3.23;100.00
45541;BME280;31265;49.680;8.608;2024-01-10T09:02:43;101708.22;;;-3.20;100.00
45541;BME280;31265;49.680;8.608;2024-01-10T09:05:12;101711.50;;;-3.12;100.00
45541;BME280;31265;49.680;8.608;2024-01-10T09:07:40;101709.00;;;-3.07;100.00
45541;BME280;31265;49.680;8.608;2024-01-10T09:10:09;101712.81;;;-3.04;100.00
45541;BME280;31265;49.680;8.608;2024-01-10T09:12:38;101725.31;;;-2.94;100.00
45541;BME280;31265;49.680;8.608;2024-01-10T09:15:13;101724.56;;;-2.82;100.00
45541;BME280;31265;49.680;8.608;2024-01-10T09:17:41;101725.63;;;-2.66;100.00
45541;BME280;31265;49.680;8.608;2024-01-10T09:20:10;101719.75;;;-2.52;100.00
45541;BME280;31265;49.680;8.608;2024-01-10T09:22:39;101728.66;;;-2.51;98.01
45541;BME280;31265;49.680;8.608;2024-01-10T09:25:08;101722.56;;;-2.43;94.50
45541;BME280;31265;49.680;8.608;2024-01-10T09:27:39;101728.13;;;-2.46;93.65
45541;BME280;31265;49.680;8.608;2024-01-10T09:30:09;101721.91;;;-2.34;92.68
45541;BME280;31265;49.680;8.608;2024-01-10T09:32:39;101719.16;;;-2.21;92.03
45541;BME280;31265;49.680;8.608;2024-01-10T09:35:08;101725.91;;;-2.26;88.71
45541;BME280;31265;49.680;8.608;2024-01-10T09:37:37;101735.25;;;-2.27;86.81
45541;BME280;31265;49.680;8.608;2024-01-10T09:40:07;101737.53;;;-2.25;90.38
45541;BME280;31265;49.680;8.608;2024-01-10T09:42:36;101727.19;;;-2.18;90.78
45541;BME280;31265;49.680;8.608;2024-01-10T09:45:06;101732.66;;;-2.18;91.16
45541;BME280;31265;49.680;8.608;2024-01-10T09:47:36;101730.50;;;-2.01;90.25
45541;BME280;31265;49.680;8.608;2024-01-10T09:50:09;101727.88;;;-1.91;88.55
45541;BME280;31265;49.680;8.608;2024-01-10T09:52:41;101732.06;;;-1.78;90.37
45541;BME280;31265;49.680;8.608;2024-01-10T09:55:11;101740.94;;;-1.64;87.11
45541;BME280;31265;49.680;8.608;2024-01-10T09:57:41;101731.50;;;-1.50;86.25
45541;BME280;31265;49.680;8.608;2024-01-10T10:00:11;101730.97;;;-1.36;82.09
45541;BME280;31265;49.680;8.608;2024-01-10T10:02:41;101731.34;;;-1.25;84.45
45541;BME280;31265;49.680;8.608;2024-01-10T10:05:13;101727.88;;;-1.25;84.86
45541;BME280;31265;49.680;8.608;2024-01-10T10:07:43;101727.34;;;-1.11;84.18
45541;BME280;31265;49.680;8.608;2024-01-10T10:10:12;101723.56;;;-1.14;84.90
45541;BME280;31265;49.680;8.608;2024-01-10T10:12:44;101726.47;;;-1.08;85.28
45541;BME280;31265;49.680;8.608;2024-01-10T10:15:14;101727.69;;;-1.00;87.35
45541;BME280;31265;49.680;8.608;2024-01-10T10:17:44;101719.34;;;-0.65;83.87
45541;BME280;31265;49.680;8.608;2024-01-10T10:20:22;101712.44;;;-0.38;82.25
45541;BME280;31265;49.680;8.608;2024-01-10T10:22:58;101716.13;;;-0.14;80.90
45541;BME280;31265;49.680;8.608;2024-01-10T10:25:30;101715.53;;;0.01;80.32
45541;BME280;31265;49.680;8.608;2024-01-10T10:28:01;101712.19;;;0.33;79.38
45541;BME280;31265;49.680;8.608;2024-01-10T10:30:31;101717.31;;;0.40;77.63
45541;BME280;31265;49.680;8.608;2024-01-10T10:33:02;101710.44;;;0.63;74.67
45541;BME280;31265;49.680;8.608;2024-01-10T10:35:34;101718.56;;;0.21;74.33
45541;BME280;31265;49.680;8.608;2024-01-10T10:38:08;101711.72;;;0.07;74.86
45541;BME280;31265;49.680;8.608;2024-01-10T10:40:37;101722.50;;;0.02;75.44
45541;BME280;31265;49.680;8.608;2024-01-10T10:43:09;101707.63;;;0.12;73.34
45541;BME280;31265;49.680;8.608;2024-01-10T10:45:46;101716.75;;;-0.10;75.56
45541;BME280;31265;49.680;8.608;2024-01-10T10:48:17;101711.25;;;-0.28;77.37
45541;BME280;31265;49.680;8.608;2024-01-10T10:50:57;101715.50;;;-0.18;77.59
45541;BME280;31265;49.680;8.608;2024-01-10T10:53:27;101723.25;;;-0.16;76.46
45541;BME280;31265;49.680;8.608;2024-01-10T10:55:59;101715.50;;;-0.36;77.12
45541;BME280;31265;49.680;8.608;2024-01-10T10:58:34;101718.22;;;-0.36;78.94
45541;BME280;31265;49.680;8.608;2024-01-10T11:01:05;101709.28;;;-0.37;78.24
45541;BME280;31265;49.680;8.608;2024-01-10T11:03:35;101720.94;;;-0.36;79.55
45541;BME280;31265;49.680;8.608;2024-01-10T11:06:07;101714.69;;;-0.55;78.24
45541;BME280;31265;49.680;8.608;2024-01-10T11:08:38;101718.66;;;-0.38;78.65
45541;BME280;31265;49.680;8.608;2024-01-10T11:11:17;101704.84;;;-0.53;79.45
45541;BME280;31265;49.680;8.608;2024-01-10T11:14:01;101693.53;;;-0.42;81.35
45541;BME280;31265;49.680;8.608;2024-01-10T11:16:53;101703.50;;;-0.30;80.92
45541;BME280;31265;49.680;8.608;2024-01-10T11:22:36;101685.16;;;-0.48;78.21
45541;BME280;31265;49.680;8.608;2024-01-10T11:25:09;101690.00;;;-0.52;79.87
45541;BME280;31265;49.680;8.608;2024-01-10T11:27:39;101688.63;;;-0.56;81.97
45541;BME280;31265;49.680;8.608;2024-01-10T11:30:08;101681.53;;;-0.35;82.47
45541;BME280;31265;49.680;8.608;2024-01-10T11:32:38;101686.84;;;-0.23;81.75
45541;BME280;31265;49.680;8.608;2024-01-10T11:35:18;101677.00;;;-0.11;80.60
45541;BME280;31265;49.680;8.608;2024-01-10T11:37:49;101678.81;;;-0.08;80.11
45541;BME280;31265;49.680;8.608;2024-01-10T11:40:46;101674.16;;;-0.07;78.19
45541;BME280;31265;49.680;8.608;2024-01-10T11:43:16;101668.22;;;0.04;79.23
45541;BME280;31265;49.680;8.608;2024-01-10T11:45:51;101677.44;;;0.25;78.17
45541;BME280;31265;49.680;8.608;2024-01-10T11:48:26;101669.28;;;0.15;77.50
45541;BME280;31265;49.680;8.608;2024-01-10T11:50:57;101678.53;;;-0.01;77.88
45541;BME280;31265;49.680;8.608;2024-01-10T11:53:44;101669.88;;;0.01;79.09
45541;BME280;31265;49.680;8.608;2024-01-10T11:56:15;101674.44;;;0.13;81.56
45541;BME280;31265;49.680;8.608;2024-01-10T11:59:00;101674.28;;;0.08;79.05
45541;BME280;31265;49.680;8.608;2024-01-10T12:01:30;101666.41;;;0.01;78.69
45541;BME280;31265;49.680;8.608;2024-01-10T12:03:59;101673.53;;;-0.20;79.26
45541;BME280;31265;49.680;8.608;2024-01-10T12:06:45;101671.25;;;-0.31;81.90
45541;BME280;31265;49.680;8.608;2024-01-10T12:09:15;101665.19;;;-0.17;84.59
45541;BME280;31265;49.680;8.608;2024-01-10T12:11:44;101670.34;;;0.09;80.89
45541;BME280;31265;49.680;8.608;2024-01-10T12:14:13;101666.25;;;-0.14;81.39
45541;BME280;31265;49.680;8.608;2024-01-10T12:16:41;101675.31;;;-0.17;80.74
45541;BME280;31265;49.680;8.608;2024-01-10T12:19:10;101662.47;;;-0.26;80.76
45541;BME280;31265;49.680;8.608;2024-01-10T12:21:39;101659.72;;;-0.26;82.25
45541;BME280;31265;49.680;8.608;2024-01-10T12:24:08;101666.09;;;-0.29;81.99
45541;BME280;31265;49.680;8.608;2024-01-10T12:26:44;101668.81;;;-0.29;83.11
45541;BME280;31265;49.680;8.608;2024-01-10T12:29:13;101663.69;;;-0.27;84.20
45541;BME280;31265;49.680;8.608;2024-01-10T12:31:45;101655.94;;;-0.38;86.95
45541;BME280;31265;49.680;8.608;2024-01-10T12:34:14;101664.28;;;-0.23;83.95
45541;BME280;31265;49.680;8.608;2024-01-10T12:36:43;101659.69;;;-0.45;86.64
45541;BME280;31265;49.680;8.608;2024-01-10T12:39:12;101657.31;;;-0.33;86.27
45541;BME280;31265;49.680;8.608;2024-01-10T12:41:41;101659.72;;;-0.35;86.12
45541;BME280;31265;49.680;8.608;2024-01-10T12:44:11;101653.50;;;-0.36;84.64
45541;BME280;31265;49.680;8.608;2024-01-10T12:46:49;101656.41;;;-0.39;86.41
45541;BME280;31265;49.680;8.608;2024-01-10T12:49:18;101661.25;;;-0.34;87.22
45541;BME280;31265;49.680;8.608;2024-01-10T12:51:47;101662.00;;;-0.25;87.04
45541;BME280;31265;49.680;8.608;2024-01-10T12:54:17;101652.28;;;-0.26;86.10
45541;BME280;31265;49.680;8.608;2024-01-10T12:56:45;101656.38;;;-0.30;86.39
45541;BME280;31265;49.680;8.608;2024-01-10T12:59:15;101652.00;;;-0.37;88.49
45541;BME280;31265;49.680;8.608;2024-01-10T13:01:44;101650.47;;;-0.38;89.03